createdAt,value
2019-04-21T00:03:23.288Z,1.50
2019-04-21T00:08:03.621Z,1.37
2019-04-21T00:12:18.221Z,1.53
2019-04-21T00:16:25.577Z,1.57
2019-04-21T00:20:44.876Z,1.27
2019-04-21T00:25:14.942Z,1.83
2019-04-21T00:29:42.527Z,1.37
2019-04-21T00:33:41.629Z,1.20
2019-04-21T00:38:22.794Z,1.37
2019-04-21T00:42:40.252Z,1.43
2019-04-21T00:47:00.598Z,1.40
2019-04-21T00:51:40.509Z,1.80
2019-04-21T00:55:57.328Z,1.40
2019-04-21T01:00:18.744Z,1.40
2019-04-21T01:04:44.862Z,1.30
2019-04-21T01:09:00.541Z,1.73
2019-04-21T01:13:23.518Z,1.53
2019-04-21T01:17:35.248Z,1.90
2019-04-21T01:21:37.504Z,2.00
2019-04-21T01:26:12.172Z,1.93
2019-04-21T01:30:34.327Z,1.43
2019-04-21T01:35:01.192Z,1.60
2019-04-21T01:39:20.168Z,1.50
2019-04-21T01:43:33.504Z,1.50
2019-04-21T01:47:59.294Z,1.60
2019-04-21T01:52:24.545Z,1.50
2019-04-21T01:56:49.739Z,1.80
2019-04-21T02:01:05.738Z,1.70
2019-04-21T02:05:37.538Z,1.40
2019-04-21T02:09:50.993Z,1.97
2019-04-21T02:14:09.950Z,1.40
2019-04-21T02:18:27.657Z,1.50
2019-04-21T02:23:06.049Z,1.47
2019-04-21T02:27:14.841Z,1.83
2019-04-21T02:36:15.380Z,1.50
2019-04-21T02:40:22.319Z,1.70
2019-04-21T02:44:43.294Z,1.37
2019-04-21T02:49:04.151Z,1.27
2019-04-21T02:53:27.048Z,1.20
2019-04-21T02:57:49.444Z,1.40
2019-04-21T03:07:11.326Z,1.30
2019-04-21T03:11:14.081Z,1.73
2019-04-21T03:15:47.395Z,1.50
2019-04-21T03:24:17.488Z,1.60
2019-04-21T03:28:39.697Z,1.40
2019-04-21T03:33:48.835Z,1.73
2019-04-21T03:37:23.154Z,1.87
2019-04-21T03:41:48.813Z,1.50
2019-04-21T03:46:02.158Z,1.60
2019-04-21T03:59:45.093Z,1.40
2019-04-21T04:04:28.418Z,1.40
2019-04-21T04:13:14.472Z,1.90
2019-04-21T04:17:32.951Z,1.70
2019-04-21T04:22:14.645Z,1.40
2019-04-21T04:30:38.250Z,1.20
2019-04-21T04:35:03.793Z,1.63
2019-04-21T04:48:19.432Z,1.50
2019-04-21T04:57:20.256Z,1.40
2019-04-21T05:01:29.938Z,1.80
2019-04-21T05:06:04.897Z,1.77
2019-04-21T05:10:22.697Z,1.60
2019-04-21T05:14:39.366Z,1.60
2019-04-21T05:19:04.167Z,1.40
2019-04-21T05:23:06.319Z,1.80
2019-04-21T05:27:48.261Z,1.60
2019-04-21T05:32:32.815Z,1.60
2019-04-21T05:37:07.236Z,1.93
2019-04-21T05:41:18.219Z,1.73
2019-04-21T05:46:12.423Z,2.07
2019-04-21T05:50:06.252Z,2.17
2019-04-21T05:54:39.067Z,2.20
2019-04-21T05:58:49.650Z,1.67
2019-04-21T06:03:15.142Z,2.13
2019-04-21T06:07:37.873Z,2.10
2019-04-21T06:11:58.003Z,2.23
2019-04-21T06:16:14.757Z,3.27
2019-04-21T06:20:33.444Z,2.57
2019-04-21T06:25:20.921Z,2.90
2019-04-21T06:29:18.494Z,2.53
2019-04-21T06:33:40.295Z,2.60
2019-04-21T06:37:56.528Z,2.90
2019-04-21T06:42:13.547Z,3.20
2019-04-21T06:51:04.918Z,2.40
2019-04-21T06:55:20.373Z,2.20
2019-04-21T06:59:34.154Z,2.87
2019-04-21T07:04:08.112Z,2.40
2019-04-21T07:12:37.069Z,2.70
2019-04-21T07:16:57.850Z,2.93
2019-04-21T07:21:15.826Z,2.30
2019-04-21T07:25:40.861Z,2.40
2019-04-21T07:29:58.582Z,2.27
2019-04-21T07:34:21.643Z,2.67
2019-04-21T07:38:36.571Z,2.60
2019-04-21T07:42:51.348Z,2.43
2019-04-21T07:47:23.419Z,2.00
2019-04-21T07:56:06.272Z,2.30
2019-04-21T08:00:45.033Z,2.50
2019-04-21T08:05:07.544Z,1.87
2019-04-21T08:09:22.933Z,2.03
2019-04-21T08:13:41.549Z,1.77
2019-04-21T08:18:00.703Z,1.50
2019-04-21T08:22:17.068Z,2.00
2019-04-21T08:31:01.321Z,1.60
2019-04-21T08:39:49.405Z,1.50
2019-04-21T08:43:57.958Z,1.53
2019-04-21T08:48:17.072Z,1.20
2019-04-21T08:52:49.294Z,1.50
2019-04-21T08:57:21.693Z,1.43
2019-04-21T09:02:12.475Z,1.10
2019-04-21T09:06:51.268Z,1.47
2019-04-21T09:10:49.810Z,1.20
2019-04-21T09:15:11.491Z,1.40
2019-04-21T09:19:40.887Z,1.30
2019-04-21T09:23:50.850Z,1.40
2019-04-21T09:28:04.025Z,1.47
2019-04-21T09:32:18.227Z,1.27
2019-04-21T09:36:40.267Z,1.40
2019-04-21T09:40:54.515Z,1.30
2019-04-21T09:45:13.935Z,1.43
2019-04-21T09:49:35.364Z,1.17
2019-04-21T09:54:01.191Z,1.17
2019-04-21T09:58:24.011Z,1.00
2019-04-21T10:02:42.604Z,1.30
2019-04-21T10:06:54.516Z,1.10
2019-04-21T10:11:14.163Z,1.00
2019-04-21T10:15:33.223Z,1.17
2019-04-21T10:19:52.828Z,1.37
2019-04-21T10:24:12.503Z,1.27
2019-04-21T10:28:32.927Z,1.20
2019-04-21T10:32:52.449Z,1.27
2019-04-21T10:37:11.413Z,1.37
2019-04-21T10:41:29.885Z,1.17
2019-04-21T10:45:48.764Z,1.20
2019-04-21T10:50:08.990Z,1.40
2019-04-21T10:54:47.818Z,1.30
2019-04-21T10:58:50.013Z,1.33
2019-04-21T11:03:35.366Z,1.30
2019-04-21T11:08:08.954Z,1.40
2019-04-21T11:12:15.980Z,1.40
2019-04-21T11:16:35.185Z,1.33
2019-04-21T11:20:53.655Z,1.50
2019-04-21T11:25:12.868Z,1.47
2019-04-21T11:29:32.970Z,1.13
2019-04-21T11:33:51.590Z,1.37
2019-04-21T11:38:19.028Z,1.23
2019-04-21T11:42:37.808Z,1.23
2019-04-21T11:46:56.655Z,1.17
2019-04-21T11:51:17.104Z,0.87
2019-04-21T11:55:39.768Z,1.20
2019-04-21T11:59:55.734Z,1.30
2019-04-21T12:04:15.962Z,1.40
2019-04-21T12:08:40.381Z,1.20
2019-04-21T12:12:55.186Z,1.17
2019-04-21T12:17:14.215Z,1.57
2019-04-21T12:21:47.908Z,1.20
2019-04-21T12:25:53.002Z,1.20
2019-04-21T12:30:13.908Z,1.30
2019-04-21T12:34:32.351Z,1.37
2019-04-21T12:38:55.789Z,1.10
2019-04-21T12:43:11.042Z,1.20
2019-04-21T12:47:30.202Z,1.00
2019-04-21T12:51:48.697Z,1.00
2019-04-21T12:56:07.576Z,1.30
2019-04-21T13:00:27.054Z,1.33
2019-04-21T13:04:46.122Z,1.10
2019-04-21T13:09:10.711Z,1.20
2019-04-21T13:13:28.144Z,1.23
2019-04-21T13:17:47.422Z,1.30
2019-04-21T13:22:06.236Z,1.17
2019-04-21T13:26:34.474Z,1.50
2019-04-21T13:30:44.576Z,1.33
2019-04-21T13:35:03.374Z,1.40
2019-04-21T13:40:14.724Z,1.37
2019-04-21T13:44:15.681Z,1.30
2019-04-21T13:48:34.952Z,1.70
2019-04-21T13:52:54.482Z,1.60
2019-04-21T13:57:14.328Z,1.40
2019-04-21T14:01:33.999Z,1.40
2019-04-21T14:05:54.025Z,1.20
2019-04-21T14:10:16.098Z,1.23
2019-04-21T14:14:36.601Z,1.20
2019-04-21T14:18:55.178Z,1.20
2019-04-21T14:23:23.121Z,1.37
2019-04-21T14:27:34.359Z,1.30
2019-04-21T14:31:52.700Z,1.30
2019-04-21T14:36:11.029Z,1.60
2019-04-21T14:40:33.246Z,1.30
2019-04-21T14:44:51.203Z,1.20
2019-04-21T14:49:17.256Z,1.47
2019-04-21T14:53:57.598Z,1.50
2019-04-21T14:58:17.100Z,1.37
2019-04-21T15:02:36.031Z,1.43
2019-04-21T15:06:55.095Z,1.50
2019-04-21T15:11:16.075Z,1.37
2019-04-21T15:15:34.499Z,1.50
2019-04-21T15:19:59.765Z,1.30
2019-04-21T15:24:16.127Z,1.20
2019-04-21T15:28:37.251Z,1.30
2019-04-21T15:32:54.786Z,1.37
2019-04-21T15:37:13.709Z,1.10
2019-04-21T15:41:32.425Z,1.40
2019-04-21T15:45:50.852Z,1.20
2019-04-21T15:50:14.272Z,1.10
2019-04-21T15:54:32.323Z,1.27
2019-04-21T15:59:08.452Z,1.37
2019-04-21T16:03:27.245Z,1.10
2019-04-21T16:07:45.529Z,1.30
2019-04-21T16:12:04.179Z,1.23
2019-04-21T16:16:25.480Z,1.47
2019-04-21T16:20:43.838Z,1.37
2019-04-21T16:25:03.347Z,1.30
2019-04-21T16:29:22.997Z,1.40
2019-04-21T16:33:43.233Z,1.20
2019-04-21T16:38:02.842Z,1.40
2019-04-21T16:42:22.642Z,1.37
2019-04-21T16:46:41.394Z,1.33
2019-04-21T16:51:01.634Z,1.20
2019-04-21T16:55:29.115Z,1.23
2019-04-21T16:59:52.654Z,1.20
2019-04-21T17:04:12.798Z,1.20
2019-04-21T17:08:31.809Z,1.33
2019-04-21T17:12:51.315Z,1.50
2019-04-21T17:17:32.420Z,1.30
2019-04-21T17:21:31.940Z,1.43
2019-04-21T17:25:50.917Z,1.33
2019-04-21T17:30:12.737Z,1.20
2019-04-21T17:34:33.703Z,1.53
2019-04-21T17:38:52.279Z,1.37
2019-04-21T17:43:14.365Z,1.37
2019-04-21T17:47:44.314Z,1.30
2019-04-21T17:52:36.698Z,1.30
2019-04-21T17:57:11.242Z,1.00
2019-04-21T18:01:35.338Z,1.20
2019-04-21T18:05:47.499Z,1.30
2019-04-21T18:10:10.013Z,1.30
2019-04-21T18:14:13.681Z,1.40
2019-04-21T18:18:32.944Z,1.07
2019-04-21T18:23:19.294Z,1.13
2019-04-21T18:27:29.837Z,1.17
2019-04-21T18:31:51.936Z,1.20
2019-04-21T18:36:34.087Z,1.13
2019-04-21T18:40:51.320Z,1.27
2019-04-21T18:45:48.007Z,1.10
2019-04-21T18:49:45.956Z,1.13
2019-04-21T18:54:29.919Z,1.10
2019-04-21T18:58:32.570Z,1.10
2019-04-21T19:02:55.946Z,1.13
2019-04-21T19:07:25.464Z,1.30
2019-04-21T19:11:51.847Z,1.40
2019-04-21T19:16:33.658Z,1.50
2019-04-21T19:20:30.073Z,1.20
2019-04-21T19:24:57.204Z,1.20
2019-04-21T19:29:21.078Z,1.43
2019-04-21T19:33:29.804Z,1.43
2019-04-21T19:37:43.191Z,1.17
2019-04-21T19:42:06.592Z,1.00
2019-04-21T19:46:31.521Z,0.90
2019-04-21T19:50:58.944Z,1.27
2019-04-21T19:54:56.733Z,1.03
2019-04-21T19:59:19.594Z,1.13
2019-04-21T20:03:38.691Z,1.40
2019-04-21T20:08:11.349Z,1.20
2019-04-21T20:12:39.920Z,1.30
2019-04-21T20:16:53.188Z,1.10
2019-04-21T20:20:58.386Z,1.10
2019-04-21T20:25:21.266Z,1.10
2019-04-21T20:29:57.528Z,1.47
2019-04-21T20:34:21.231Z,0.90
2019-04-21T20:38:34.018Z,1.10
2019-04-21T20:42:51.061Z,1.10
2019-04-21T20:47:11.463Z,1.20
2019-04-21T20:51:37.901Z,1.20
2019-04-21T20:55:53.247Z,1.07
2019-04-21T21:00:21.780Z,1.33
2019-04-21T21:04:30.076Z,1.10
2019-04-21T21:09:00.212Z,1.20
2019-04-21T21:13:26.562Z,0.90
2019-04-21T21:17:50.362Z,1.30
2019-04-21T21:21:56.290Z,1.00
2019-04-21T21:26:28.268Z,1.00
2019-04-21T21:30:38.574Z,1.40
2019-04-21T21:35:06.273Z,1.20
2019-04-21T21:39:21.495Z,1.30
2019-04-21T21:43:28.941Z,1.40
2019-04-21T21:48:06.990Z,1.10
2019-04-21T21:52:16.866Z,1.10
2019-04-21T21:56:27.284Z,1.00
2019-04-21T22:00:56.687Z,1.00
2019-04-21T22:05:16.575Z,1.17
2019-04-21T22:09:32.283Z,1.27
2019-04-21T22:13:58.836Z,1.10
2019-04-21T22:18:28.689Z,1.13
2019-04-21T22:22:43.854Z,1.10
2019-04-21T22:26:52.527Z,1.00
2019-04-21T22:31:15.444Z,1.00
2019-04-21T22:35:38.930Z,0.93
2019-04-21T22:40:04.480Z,1.00
2019-04-21T22:44:18.835Z,1.27
2019-04-21T22:48:37.202Z,1.00
2019-04-21T22:52:59.472Z,1.10
2019-04-21T22:57:19.840Z,1.20
2019-04-21T23:01:42.402Z,1.30
2019-04-21T23:06:00.532Z,1.40
2019-04-21T23:10:17.527Z,1.27
2019-04-21T23:14:46.826Z,1.30
2019-04-21T23:19:17.271Z,1.70
2019-04-21T23:23:39.758Z,1.20
2019-04-21T23:27:59.124Z,1.40
2019-04-21T23:32:14.938Z,1.30
2019-04-21T23:36:22.625Z,1.00
2019-04-21T23:40:39.755Z,1.10
2019-04-21T23:44:59.661Z,0.90
2019-04-21T23:49:31.959Z,1.40
2019-04-21T23:53:37.504Z,1.23
2019-04-21T23:58:06.059Z,1.13
